createdAt,value
2023-01-30T00:01:12.263Z,20.03
2023-01-30T00:03:38.670Z,19.00
2023-01-30T00:06:05.242Z,23.90
2023-01-30T00:08:31.688Z,21.67
2023-01-30T00:11:04.303Z,22.27
2023-01-30T00:13:30.817Z,21.00
2023-01-30T00:15:57.395Z,24.67
2023-01-30T00:18:24.211Z,27.00
2023-01-30T00:21:02.594Z,25.47
2023-01-30T00:23:30.362Z,22.80
2023-01-30T00:25:56.837Z,22.70
2023-01-30T00:28:24.040Z,23.57
2023-01-30T00:30:51.689Z,25.60
2023-01-30T00:33:19.620Z,24.60
2023-01-30T00:35:48.124Z,23.73
2023-01-30T00:38:15.166Z,24.40
2023-01-30T00:40:42.075Z,23.70
2023-01-30T00:43:31.130Z,25.03
2023-01-30T00:46:17.089Z,22.17
2023-01-30T00:48:43.553Z,25.13
2023-01-30T00:51:10.368Z,23.70
2023-01-30T00:53:36.961Z,25.97
2023-01-30T00:56:03.887Z,22.47
2023-01-30T00:58:30.353Z,26.47
2023-01-30T01:00:56.876Z,24.57
2023-01-30T01:03:23.591Z,25.80
2023-01-30T01:05:50.124Z,24.67
2023-01-30T01:08:16.751Z,26.13
2023-01-30T01:10:43.231Z,27.53
2023-01-30T01:13:10.548Z,23.47
2023-01-30T01:15:37.197Z,26.00
2023-01-30T01:18:05.472Z,25.70
2023-01-30T01:20:32.011Z,24.37
2023-01-30T01:22:58.479Z,26.13
2023-01-30T01:25:26.103Z,25.90
2023-01-30T01:27:54.239Z,24.47
2023-01-30T01:30:20.877Z,25.87
2023-01-30T01:32:47.341Z,25.47
2023-01-30T01:35:13.814Z,24.43
2023-01-30T01:37:40.291Z,24.70
2023-01-30T01:40:26.186Z,23.77
2023-01-30T01:42:52.749Z,24.40
2023-01-30T01:45:22.057Z,24.77
2023-01-30T01:48:06.021Z,24.87
2023-01-30T01:50:58.322Z,22.87
2023-01-30T01:53:30.050Z,25.50
2023-01-30T01:55:59.473Z,25.57
2023-01-30T01:58:40.248Z,23.63
2023-01-30T02:01:07.260Z,22.73
2023-01-30T02:03:40.131Z,26.00
2023-01-30T02:06:08.407Z,23.10
2023-01-30T02:08:43.795Z,23.03
2023-01-30T02:11:38.840Z,20.77
2023-01-30T02:14:06.402Z,23.20
2023-01-30T02:16:32.887Z,27.23
2023-01-30T02:18:59.367Z,23.97
2023-01-30T02:21:56.591Z,22.73
2023-01-30T02:24:40.677Z,24.17
2023-01-30T02:27:32.184Z,24.83
2023-01-30T02:30:42.724Z,23.47
2023-01-30T02:33:57.385Z,26.93
2023-01-30T02:36:36.553Z,26.07
2023-01-30T02:39:17.242Z,27.40
2023-01-30T02:41:50.373Z,28.47
2023-01-30T02:44:23.695Z,25.77
2023-01-30T02:46:58.932Z,26.37
2023-01-30T02:49:32.183Z,27.23
2023-01-30T02:52:01.360Z,25.33
2023-01-30T02:54:27.951Z,28.47
2023-01-30T02:56:58.148Z,26.80
2023-01-30T02:59:39.220Z,29.60
2023-01-30T03:02:51.975Z,26.80
2023-01-30T03:05:30.791Z,27.30
2023-01-30T03:08:14.699Z,30.30
2023-01-30T03:10:52.001Z,27.20
2023-01-30T03:13:45.979Z,29.33
2023-01-30T03:16:22.734Z,28.83
2023-01-30T03:18:49.528Z,29.17
2023-01-30T03:21:17.532Z,31.17
2023-01-30T03:23:47.452Z,32.40
2023-01-30T03:26:24.676Z,32.53
2023-01-30T03:28:53.041Z,33.27
2023-01-30T03:31:20.001Z,32.90
2023-01-30T03:33:46.535Z,36.73
2023-01-30T03:36:13.870Z,32.13
2023-01-30T03:38:40.531Z,31.97
2023-01-30T03:41:07.027Z,32.03
2023-01-30T03:43:34.318Z,31.87
2023-01-30T03:46:03.104Z,34.73
2023-01-30T03:48:29.927Z,31.27
2023-01-30T03:50:56.431Z,32.80
2023-01-30T03:53:23.115Z,29.50
2023-01-30T03:55:49.800Z,29.37
2023-01-30T03:58:21.488Z,34.30
2023-01-30T04:00:48.369Z,34.17
2023-01-30T04:03:15.753Z,31.37
2023-01-30T04:05:43.753Z,30.27
2023-01-30T04:08:10.602Z,29.33
2023-01-30T04:10:37.166Z,31.43
2023-01-30T04:13:03.713Z,30.17
2023-01-30T04:15:31.933Z,28.73
2023-01-30T04:18:16.821Z,28.07
2023-01-30T04:21:04.241Z,30.70
2023-01-30T04:23:35.953Z,27.77
2023-01-30T04:26:03.696Z,30.43
2023-01-30T04:28:31.620Z,27.17
2023-01-30T04:30:58.221Z,26.47
2023-01-30T04:33:43.173Z,25.60
2023-01-30T04:36:11.433Z,24.37
2023-01-30T04:38:39.055Z,24.13
2023-01-30T04:41:07.010Z,27.67
2023-01-30T04:43:36.093Z,21.77
2023-01-30T04:46:28.618Z,21.73
2023-01-30T04:48:56.026Z,23.20
2023-01-30T04:51:22.461Z,21.57
2023-01-30T04:53:48.915Z,22.47
2023-01-30T04:56:15.398Z,21.67
2023-01-30T04:58:42.439Z,20.67
2023-01-30T05:01:14.122Z,22.83
2023-01-30T05:03:40.603Z,22.10
2023-01-30T05:06:07.372Z,21.03
2023-01-30T05:08:33.809Z,19.87
2023-01-30T05:11:00.232Z,20.10
2023-01-30T05:13:26.695Z,20.53
2023-01-30T05:15:53.169Z,19.80
2023-01-30T05:18:19.647Z,19.30
2023-01-30T05:20:46.038Z,16.37
2023-01-30T05:23:12.450Z,19.83
2023-01-30T05:25:38.842Z,19.37
2023-01-30T05:28:05.260Z,20.70
2023-01-30T05:30:31.705Z,21.70
2023-01-30T05:32:58.831Z,19.53
2023-01-30T05:35:25.247Z,19.17
2023-01-30T05:37:52.477Z,20.60
2023-01-30T05:40:19.023Z,20.07
2023-01-30T05:42:45.443Z,19.20
2023-01-30T05:45:11.877Z,20.73
2023-01-30T05:47:38.346Z,21.43
2023-01-30T05:50:05.177Z,19.30
2023-01-30T05:52:31.618Z,19.23
2023-01-30T05:54:58.029Z,17.60
2023-01-30T05:57:24.517Z,24.83
2023-01-30T05:59:50.917Z,28.67
2023-01-30T06:02:17.363Z,27.10
2023-01-30T06:04:43.836Z,17.87
2023-01-30T06:07:10.277Z,17.50
2023-01-30T06:09:36.688Z,17.53
2023-01-30T06:12:03.213Z,16.30
2023-01-30T06:14:29.652Z,16.50
2023-01-30T06:16:56.219Z,16.37
2023-01-30T06:19:23.777Z,17.17
2023-01-30T06:21:50.213Z,16.67
2023-01-30T06:24:16.627Z,17.60
2023-01-30T06:26:43.115Z,18.37
2023-01-30T06:29:09.594Z,18.60
2023-01-30T06:31:36.118Z,17.77
2023-01-30T06:34:02.622Z,17.53
2023-01-30T06:36:29.145Z,19.13
2023-01-30T06:38:55.603Z,18.63
2023-01-30T06:41:22.019Z,20.07
2023-01-30T06:43:48.497Z,23.23
2023-01-30T06:46:14.971Z,18.20
2023-01-30T06:48:41.451Z,22.83
2023-01-30T06:51:07.896Z,19.47
2023-01-30T06:53:34.314Z,20.93
2023-01-30T06:56:01.594Z,19.77
2023-01-30T06:58:28.121Z,22.03
2023-01-30T07:00:54.601Z,20.60
2023-01-30T07:03:21.043Z,25.33
2023-01-30T07:05:48.279Z,26.17
2023-01-30T07:08:16.222Z,31.03
2023-01-30T07:10:43.580Z,22.73
2023-01-30T07:13:10.238Z,25.43
2023-01-30T07:15:37.084Z,23.63
2023-01-30T07:18:03.680Z,24.43
2023-01-30T07:20:31.207Z,24.50
2023-01-30T07:22:58.025Z,21.77
2023-01-30T07:25:26.233Z,26.00
2023-01-30T07:27:58.358Z,19.83
2023-01-30T07:30:26.050Z,23.27
2023-01-30T07:32:54.769Z,23.93
2023-01-30T07:35:23.112Z,21.90
2023-01-30T07:37:50.856Z,22.03
2023-01-30T07:40:18.905Z,19.00
2023-01-30T07:42:56.201Z,21.90
2023-01-30T07:45:22.660Z,20.10
2023-01-30T07:47:49.054Z,20.40
2023-01-30T07:50:16.343Z,17.67
2023-01-30T07:52:42.923Z,18.47
2023-01-30T07:55:09.567Z,18.37
2023-01-30T07:57:36.056Z,16.00
2023-01-30T08:00:04.741Z,18.60
2023-01-30T08:02:35.222Z,18.20
2023-01-30T08:05:02.771Z,18.33
2023-01-30T08:07:30.306Z,17.63
2023-01-30T08:09:56.728Z,17.80
2023-01-30T08:12:23.232Z,18.33
2023-01-30T08:14:49.630Z,17.13
2023-01-30T08:17:16.159Z,18.27
2023-01-30T08:19:42.613Z,16.17
2023-01-30T08:22:09.122Z,20.67
2023-01-30T08:24:35.876Z,15.60
2023-01-30T08:27:03.173Z,17.90
2023-01-30T08:29:29.631Z,17.07
2023-01-30T08:31:59.951Z,17.33
2023-01-30T08:34:26.891Z,16.60
2023-01-30T08:36:53.401Z,15.33
2023-01-30T08:39:19.870Z,14.93
2023-01-30T08:41:46.336Z,13.63
2023-01-30T08:44:12.794Z,15.70
2023-01-30T08:46:39.543Z,13.57
2023-01-30T08:49:06.507Z,16.20
2023-01-30T08:51:33.189Z,15.17
2023-01-30T08:53:59.624Z,14.90
2023-01-30T08:56:26.167Z,14.13
2023-01-30T08:58:52.640Z,14.33
2023-01-30T09:01:19.948Z,11.93
2023-01-30T09:03:46.834Z,16.23
2023-01-30T09:06:13.366Z,14.40
2023-01-30T09:08:39.755Z,12.83
2023-01-30T09:11:06.664Z,12.17
2023-01-30T09:13:34.740Z,14.70
2023-01-30T09:16:01.199Z,13.80
2023-01-30T09:18:27.699Z,13.40
2023-01-30T09:21:03.057Z,13.63
2023-01-30T09:23:29.969Z,12.07
2023-01-30T09:25:56.385Z,11.57
2023-01-30T09:28:22.967Z,13.13
2023-01-30T09:30:49.497Z,11.17
2023-01-30T09:33:20.145Z,11.27
2023-01-30T09:35:49.989Z,11.07
2023-01-30T09:38:17.189Z,12.10
2023-01-30T09:41:06.742Z,10.67
2023-01-30T09:44:02.715Z,9.70
2023-01-30T09:46:48.293Z,8.83
2023-01-30T09:49:39.784Z,9.60
2023-01-30T09:52:33.634Z,8.67
2023-01-30T09:55:18.568Z,8.77
2023-01-30T09:57:50.817Z,8.40
2023-01-30T10:00:35.825Z,9.33
2023-01-30T10:03:10.579Z,9.23
2023-01-30T10:05:56.879Z,10.40
2023-01-30T10:08:56.283Z,7.43
2023-01-30T10:11:29.146Z,8.00
2023-01-30T10:14:13.357Z,8.50
2023-01-30T10:17:04.076Z,7.27
2023-01-30T10:19:49.274Z,6.83
2023-01-30T10:22:22.931Z,8.13
2023-01-30T10:25:03.029Z,5.93
2023-01-30T10:27:32.349Z,7.57
2023-01-30T10:30:03.239Z,7.77
2023-01-30T10:32:44.104Z,6.57
2023-01-30T10:35:18.272Z,8.77
2023-01-30T10:38:00.916Z,7.17
2023-01-30T10:40:42.839Z,8.20
2023-01-30T10:43:30.773Z,7.10
2023-01-30T10:46:04.399Z,6.40
2023-01-30T10:48:53.200Z,6.57
2023-01-30T10:51:19.742Z,7.50
2023-01-30T10:53:53.383Z,7.43
2023-01-30T10:56:40.063Z,6.43
2023-01-30T10:59:20.858Z,6.63
2023-01-30T11:02:02.636Z,8.63
2023-01-30T11:04:59.477Z,7.23
2023-01-30T11:07:30.531Z,8.23
2023-01-30T11:09:58.364Z,7.27
2023-01-30T11:12:24.936Z,7.57
2023-01-30T11:14:58.720Z,7.40
2023-01-30T11:17:32.142Z,7.53
2023-01-30T11:20:04.965Z,6.67
2023-01-30T11:22:34.286Z,7.43
2023-01-30T11:25:03.795Z,9.47
2023-01-30T11:27:35.116Z,7.73
2023-01-30T11:30:16.964Z,8.60
2023-01-30T11:32:45.192Z,8.03
2023-01-30T11:35:14.616Z,7.47
2023-01-30T11:37:43.547Z,8.70
2023-01-30T11:40:23.756Z,8.40
2023-01-30T11:43:12.178Z,8.63
2023-01-30T11:45:43.933Z,7.83
2023-01-30T11:48:33.026Z,7.47
2023-01-30T11:51:04.559Z,7.47
2023-01-30T11:53:56.729Z,7.33
2023-01-30T11:56:44.500Z,7.93
2023-01-30T11:59:32.164Z,6.60
2023-01-30T12:02:24.891Z,5.90
2023-01-30T12:04:54.692Z,7.07
2023-01-30T12:07:25.374Z,6.93
2023-01-30T12:09:54.090Z,7.63
2023-01-30T12:12:29.703Z,7.63
2023-01-30T12:15:21.434Z,8.07
2023-01-30T12:18:15.637Z,6.57
2023-01-30T12:20:52.559Z,6.40
2023-01-30T12:23:31.101Z,7.30
2023-01-30T12:26:15.618Z,8.27
2023-01-30T12:28:52.146Z,9.27
2023-01-30T12:31:24.797Z,8.13
2023-01-30T12:33:54.504Z,10.53
2023-01-30T12:36:50.596Z,9.73
2023-01-30T12:39:44.916Z,8.37
2023-01-30T12:42:47.847Z,11.13
2023-01-30T12:45:24.244Z,9.83
2023-01-30T12:48:44.145Z,12.50
2023-01-30T12:51:32.408Z,9.80
2023-01-30T12:54:34.063Z,10.33
2023-01-30T12:57:05.279Z,10.90
2023-01-30T12:59:31.680Z,9.63
2023-01-30T13:02:17.309Z,10.33
2023-01-30T13:05:23.701Z,9.73
2023-01-30T13:08:04.852Z,10.73
2023-01-30T13:10:43.048Z,10.67
2023-01-30T13:13:18.069Z,11.03
2023-01-30T13:15:59.226Z,9.90
2023-01-30T13:18:44.046Z,11.47
2023-01-30T13:21:18.599Z,11.00
2023-01-30T13:24:22.974Z,10.67
2023-01-30T13:26:50.865Z,11.77
2023-01-30T13:29:37.960Z,10.60
2023-01-30T13:33:00.111Z,10.23
2023-01-30T13:35:34.322Z,8.70
2023-01-30T13:38:04.399Z,9.47
2023-01-30T13:40:38.626Z,10.07
2023-01-30T13:43:29.242Z,10.13
2023-01-30T13:46:01.579Z,10.83
2023-01-30T13:48:57.015Z,17.17
2023-01-30T13:51:43.139Z,8.97
2023-01-30T13:54:31.227Z,9.07
2023-01-30T13:57:28.230Z,9.20
2023-01-30T14:00:15.268Z,8.87
2023-01-30T14:03:03.846Z,8.20
2023-01-30T14:05:52.613Z,7.73
2023-01-30T14:08:22.040Z,8.80
2023-01-30T14:10:49.782Z,8.77
2023-01-30T14:13:19.809Z,7.83
2023-01-30T14:15:58.075Z,11.57
2023-01-30T14:18:31.072Z,8.53
2023-01-30T14:21:14.388Z,7.00
2023-01-30T14:23:53.408Z,7.27
2023-01-30T14:27:00.071Z,9.73
2023-01-30T14:29:38.955Z,9.57
2023-01-30T14:32:14.610Z,7.37
2023-01-30T14:34:44.884Z,10.43
2023-01-30T14:37:39.188Z,8.73
2023-01-30T14:40:20.854Z,10.10
2023-01-30T14:43:12.247Z,9.43
2023-01-30T14:46:00.755Z,10.80
2023-01-30T14:48:33.316Z,10.87
2023-01-30T14:51:21.269Z,11.43
2023-01-30T14:54:10.116Z,10.80
2023-01-30T14:56:51.622Z,10.00
2023-01-30T14:59:20.955Z,9.27
2023-01-30T15:02:03.622Z,10.77
2023-01-30T15:04:33.692Z,13.30
2023-01-30T15:07:05.413Z,13.63
2023-01-30T15:09:32.516Z,9.13
2023-01-30T15:12:24.677Z,10.10
2023-01-30T15:15:16.887Z,12.00
2023-01-30T15:18:28.670Z,9.73
2023-01-30T15:21:04.117Z,9.87
2023-01-30T15:23:36.509Z,8.73
2023-01-30T15:26:09.686Z,7.03
2023-01-30T15:28:53.275Z,8.60
2023-01-30T15:31:22.437Z,8.80
2023-01-30T15:33:51.730Z,10.77
2023-01-30T15:36:31.572Z,9.33
2023-01-30T15:38:59.030Z,8.40
2023-01-30T15:41:26.616Z,11.17
2023-01-30T15:44:29.763Z,10.97
2023-01-30T15:47:24.256Z,8.90
2023-01-30T15:49:54.351Z,11.93
2023-01-30T15:52:22.880Z,14.73
2023-01-30T15:54:54.742Z,8.97
2023-01-30T15:57:31.359Z,8.83
2023-01-30T15:59:58.184Z,11.17
2023-01-30T16:02:33.761Z,11.03
2023-01-30T16:05:25.322Z,10.23
2023-01-30T16:07:54.594Z,11.60
2023-01-30T16:10:23.695Z,10.93
2023-01-30T16:12:54.548Z,11.20
2023-01-30T16:15:34.878Z,12.53
2023-01-30T16:18:09.578Z,10.60
2023-01-30T16:21:00.821Z,10.63
2023-01-30T16:23:29.531Z,8.10
2023-01-30T16:25:57.103Z,8.77
2023-01-30T16:28:26.328Z,12.90
2023-01-30T16:31:07.758Z,10.83
2023-01-30T16:33:36.485Z,11.63
2023-01-30T16:36:21.476Z,11.03
2023-01-30T16:38:49.873Z,10.83
2023-01-30T16:41:31.835Z,10.97
2023-01-30T16:44:21.661Z,9.33
2023-01-30T16:46:52.376Z,10.03
2023-01-30T16:49:37.402Z,8.37
2023-01-30T16:52:36.962Z,9.20
2023-01-30T16:55:07.809Z,11.07
2023-01-30T16:57:40.272Z,9.30
2023-01-30T17:00:13.172Z,9.73
2023-01-30T17:02:50.816Z,10.73
2023-01-30T17:05:19.224Z,12.23
2023-01-30T17:07:46.605Z,13.07
2023-01-30T17:10:28.510Z,12.93
2023-01-30T17:12:55.806Z,11.77
2023-01-30T17:15:22.312Z,13.63
2023-01-30T17:17:49.978Z,15.87
2023-01-30T17:20:16.775Z,13.43
2023-01-30T17:22:46.790Z,15.43
2023-01-30T17:25:35.760Z,12.67
2023-01-30T17:28:02.464Z,12.73
2023-01-30T17:30:28.930Z,14.40
2023-01-30T17:32:55.375Z,15.00
2023-01-30T17:35:22.023Z,13.97
2023-01-30T17:37:59.618Z,13.20
2023-01-30T17:40:36.834Z,16.23
2023-01-30T17:43:03.945Z,13.93
2023-01-30T17:45:30.610Z,13.93
2023-01-30T17:47:57.036Z,13.83
2023-01-30T17:50:23.600Z,14.13
2023-01-30T17:52:50.038Z,16.47
2023-01-30T17:55:16.585Z,16.83
2023-01-30T17:57:46.333Z,16.83
2023-01-30T18:00:19.089Z,16.00
2023-01-30T18:02:46.327Z,15.03
2023-01-30T18:05:13.075Z,16.37
2023-01-30T18:07:40.253Z,13.80
2023-01-30T18:10:07.645Z,17.27
2023-01-30T18:12:34.068Z,16.63
2023-01-30T18:15:00.543Z,18.70
2023-01-30T18:17:30.240Z,17.63
2023-01-30T18:19:56.663Z,16.83
2023-01-30T18:22:23.177Z,16.13
2023-01-30T18:24:49.605Z,16.07
2023-01-30T18:27:16.020Z,19.13
2023-01-30T18:29:42.487Z,20.20
2023-01-30T18:32:08.962Z,18.73
2023-01-30T18:34:35.944Z,18.53
2023-01-30T18:37:02.482Z,17.90
2023-01-30T18:39:29.243Z,17.60
2023-01-30T18:41:55.672Z,18.57
2023-01-30T18:44:22.103Z,16.50
2023-01-30T18:46:50.240Z,17.50
2023-01-30T18:49:16.661Z,18.83
2023-01-30T18:51:43.062Z,17.70
2023-01-30T18:54:09.517Z,18.00
2023-01-30T18:56:36.514Z,15.77
2023-01-30T18:59:05.125Z,19.37
2023-01-30T19:01:35.461Z,28.10
2023-01-30T19:04:02.975Z,24.53
2023-01-30T19:06:30.172Z,23.93
2023-01-30T19:08:57.557Z,20.90
2023-01-30T19:11:43.055Z,20.67
2023-01-30T19:14:10.513Z,19.40
2023-01-30T19:16:38.762Z,17.83
2023-01-30T19:19:05.528Z,20.57
2023-01-30T19:21:32.292Z,20.53
2023-01-30T19:24:01.710Z,20.70
2023-01-30T19:26:28.793Z,22.33
2023-01-30T19:28:55.281Z,23.40
2023-01-30T19:31:22.486Z,18.07
2023-01-30T19:33:55.834Z,20.97
2023-01-30T19:36:24.273Z,23.83
2023-01-30T19:38:51.249Z,22.60
2023-01-30T19:41:27.021Z,21.07
2023-01-30T19:43:54.909Z,19.43
2023-01-30T19:46:21.525Z,26.63
2023-01-30T19:48:48.967Z,28.67
2023-01-30T19:51:27.050Z,27.93
2023-01-30T19:53:59.197Z,19.77
2023-01-30T19:56:27.137Z,20.33
2023-01-30T19:58:55.098Z,21.37
2023-01-30T20:01:23.695Z,20.07
2023-01-30T20:03:50.494Z,22.87
2023-01-30T20:06:19.608Z,22.37
2023-01-30T20:08:49.474Z,23.43
2023-01-30T20:11:18.794Z,22.50
2023-01-30T20:13:46.826Z,24.13
2023-01-30T20:16:18.456Z,27.83
2023-01-30T20:18:47.109Z,21.83
2023-01-30T20:21:19.704Z,22.07
2023-01-30T20:23:47.123Z,19.33
2023-01-30T20:26:16.361Z,19.17
2023-01-30T20:28:43.025Z,19.27
2023-01-30T20:31:12.739Z,20.17
2023-01-30T20:33:39.939Z,20.67
2023-01-30T20:36:08.943Z,20.27
2023-01-30T20:38:37.441Z,18.17
2023-01-30T20:41:17.671Z,21.57
2023-01-30T20:43:46.608Z,19.80
2023-01-30T20:46:19.131Z,20.00
2023-01-30T20:48:46.857Z,23.07
2023-01-30T20:51:18.297Z,22.67
2023-01-30T20:53:53.507Z,19.97
2023-01-30T20:56:21.386Z,21.97
2023-01-30T20:58:48.251Z,23.30
2023-01-30T21:01:18.443Z,25.47
2023-01-30T21:03:48.749Z,23.17
2023-01-30T21:06:37.304Z,24.77
2023-01-30T21:09:03.176Z,22.67
2023-01-30T21:11:29.728Z,24.33
2023-01-30T21:13:56.468Z,23.03
2023-01-30T21:16:25.580Z,25.43
2023-01-30T21:18:55.042Z,22.93
2023-01-30T21:21:39.461Z,23.60
2023-01-30T21:24:13.940Z,25.13
2023-01-30T21:26:45.812Z,23.47
2023-01-30T21:29:14.360Z,25.93
2023-01-30T21:31:41.484Z,24.70
2023-01-30T21:34:09.745Z,24.77
2023-01-30T21:36:36.799Z,22.27
2023-01-30T21:39:21.829Z,28.27
2023-01-30T21:42:07.108Z,21.63
2023-01-30T21:44:39.258Z,20.90
2023-01-30T21:47:07.059Z,18.97
2023-01-30T21:49:34.365Z,24.30
2023-01-30T21:52:00.891Z,20.27
2023-01-30T21:54:27.755Z,20.30
2023-01-30T21:56:54.259Z,23.33
2023-01-30T21:59:20.782Z,37.40
2023-01-30T22:01:47.278Z,28.37
2023-01-30T22:04:14.929Z,24.93
2023-01-30T22:06:42.526Z,21.90
2023-01-30T22:09:11.538Z,28.27
2023-01-30T22:11:38.691Z,27.00
2023-01-30T22:14:05.496Z,25.97
2023-01-30T22:16:33.541Z,25.00
2023-01-30T22:19:03.489Z,25.60
2023-01-30T22:21:33.501Z,23.27
2023-01-30T22:24:02.262Z,23.30
2023-01-30T22:26:29.349Z,24.27
2023-01-30T22:28:57.392Z,23.70
2023-01-30T22:31:25.190Z,29.00
2023-01-30T22:33:54.992Z,22.43
2023-01-30T22:36:29.262Z,26.87
2023-01-30T22:38:56.067Z,26.87
2023-01-30T22:41:24.787Z,20.87
2023-01-30T22:43:56.164Z,23.83
2023-01-30T22:46:25.105Z,21.63
2023-01-30T22:48:51.758Z,20.50
2023-01-30T22:51:20.912Z,22.87
2023-01-30T22:53:50.556Z,20.10
2023-01-30T22:56:23.009Z,18.03
2023-01-30T22:58:50.041Z,18.63
2023-01-30T23:01:19.653Z,20.87
2023-01-30T23:03:47.656Z,20.13
2023-01-30T23:06:16.648Z,20.63
2023-01-30T23:08:45.686Z,19.80
2023-01-30T23:11:18.316Z,21.20
2023-01-30T23:13:47.583Z,22.10
2023-01-30T23:16:15.861Z,16.80
2023-01-30T23:19:00.665Z,16.33
2023-01-30T23:21:37.841Z,17.37
2023-01-30T23:24:16.676Z,19.57
2023-01-30T23:26:45.967Z,18.10
2023-01-30T23:29:15.135Z,25.43
2023-01-30T23:31:43.386Z,17.63
2023-01-30T23:34:15.526Z,18.70
2023-01-30T23:36:42.293Z,16.73
2023-01-30T23:39:08.943Z,20.83
2023-01-30T23:41:36.605Z,18.87
2023-01-30T23:44:04.115Z,18.77
2023-01-30T23:46:36.669Z,21.90
2023-01-30T23:49:10.443Z,18.83
2023-01-30T23:51:39.908Z,20.33
2023-01-30T23:54:07.122Z,20.07
2023-01-30T23:56:37.566Z,20.80
2023-01-30T23:59:05.013Z,20.47
